Time;durP1;ratioP1;P1;durP2;ratioP2;P2;SDS_P1;SDS_P2;PMS_P1;PMS_P2;Temp;Humidity;BMP_temperature;BMP_pressure;BME280_temperature;BME280_humidity;BME280_pressure;Samples;Min_cycle;Max_cycle;Signal;HPM_P1;HPM_P2
2021/03/07 00:01:28;;;;;;;38.87;23.13;;;;;;;;;;778268;180;958066;-71
2021/03/07 00:03:54;;;;;;;35.57;22.30;;;;;;;;;;766171;180;919867;-69
2021/03/07 00:06:20;;;;;;;36.30;21.60;;;;;;;;;;771686;180;919544;-69
2021/03/07 00:08:45;;;;;;;35.50;21.87;;;;;;;;;;772214;181;919291;-69
2021/03/07 00:11:11;;;;;;;36.77;23.23;;;;;;;;;;773364;179;918847;-70
2021/03/07 00:13:37;;;;;;;32.50;22.30;;;;;;;;;;775238;180;919317;-69
2021/03/07 00:16:03;;;;;;;41.10;24.03;;;;;;;;;;774587;180;919924;-68
2021/03/07 00:18:29;;;;;;;36.97;23.77;;;;;;;;;;774438;180;919219;-69
2021/03/07 00:20:55;;;;;;;40.57;26.37;;;;;;;;;;774631;180;918711;-69
2021/03/07 00:23:21;;;;;;;40.53;26.90;;;;;;;;;;773428;180;918303;-70
2021/03/07 00:25:46;;;;;;;37.23;24.13;;;;;;;;;;777921;180;919681;-70
2021/03/07 00:28:12;;;;;;;38.90;25.17;;;;;;;;;;768815;180;920739;-68
2021/03/07 00:30:38;;;;;;;44.55;23.70;;;;;;;;;;776508;180;919030;-69
2021/03/07 00:33:04;;;;;;;41.27;25.10;;;;;;;;;;770944;181;1022584;-69
2021/03/07 00:35:30;;;;;;;44.67;26.83;;;;;;;;;;768104;181;919072;-69
2021/03/07 00:37:56;;;;;;;45.50;24.83;;;;;;;;;;767075;180;913918;-69
2021/03/07 00:40:22;;;;;;;45.07;26.27;;;;;;;;;;771334;180;922736;-69
2021/03/07 00:42:47;;;;;;;41.80;26.70;;;;;;;;;;772832;180;920323;-69
2021/03/07 00:45:14;;;;;;;52.03;26.50;;;;;;;;;;774283;180;918756;-69
2021/03/07 00:47:40;;;;;;;41.92;26.83;;;;;;;;;;773422;180;920068;-70
2021/03/07 00:50:07;;;;;;;35.60;25.07;;;;;;;;;;762362;183;918438;-69
2021/03/07 00:52:33;;;;;;;37.03;24.67;;;;;;;;;;762222;182;920042;-69
2021/03/07 00:54:58;;;;;;;37.33;24.43;;;;;;;;;;769754;181;920076;-70
2021/03/07 00:57:24;;;;;;;41.07;25.07;;;;;;;;;;775198;180;919175;-69
2021/03/07 00:59:50;;;;;;;36.53;23.83;;;;;;;;;;771388;180;916028;-69
2021/03/07 01:02:16;;;;;;;40.27;24.73;;;;;;;;;;766550;180;916863;-69
2021/03/07 01:04:42;;;;;;;42.92;23.77;;;;;;;;;;775116;181;918965;-69
2021/03/07 01:07:08;;;;;;;44.47;25.20;;;;;;;;;;770441;180;913176;-69
2021/03/07 01:09:33;;;;;;;41.67;24.97;;;;;;;;;;772304;180;627031;-69
2021/03/07 01:12:00;;;;;;;43.28;26.50;;;;;;;;;;770818;180;919501;-68
2021/03/07 01:14:26;;;;;;;40.70;25.80;;;;;;;;;;772750;180;894486;-70
2021/03/07 01:16:52;;;;;;;42.37;29.07;;;;;;;;;;769293;180;919467;-69
2021/03/07 01:19:18;;;;;;;45.60;29.77;;;;;;;;;;767799;180;930131;-69
2021/03/07 01:21:43;;;;;;;51.07;27.00;;;;;;;;;;776504;180;918952;-69
2021/03/07 01:24:09;;;;;;;47.00;29.13;;;;;;;;;;772845;180;919780;-68
2021/03/07 01:26:35;;;;;;;48.97;27.30;;;;;;;;;;774637;180;919123;-70
2021/03/07 01:29:01;;;;;;;47.93;26.50;;;;;;;;;;777613;180;919252;-69
2021/03/07 01:31:27;;;;;;;48.73;28.50;;;;;;;;;;771416;180;919556;-70
2021/03/07 01:33:53;;;;;;;47.13;28.10;;;;;;;;;;776578;180;619947;-69
2021/03/07 01:36:19;;;;;;;42.47;25.97;;;;;;;;;;780693;180;920167;-69
2021/03/07 01:38:44;;;;;;;46.80;26.70;;;;;;;;;;771166;180;918624;-69
2021/03/07 01:41:10;;;;;;;50.77;28.10;;;;;;;;;;773187;180;919287;-69
2021/03/07 01:43:36;;;;;;;50.00;27.83;;;;;;;;;;774139;181;1021275;-69
2021/03/07 01:46:02;;;;;;;57.77;30.07;;;;;;;;;;763549;183;918656;-68
2021/03/07 01:48:28;;;;;;;44.72;26.87;;;;;;;;;;771112;180;919135;-69
2021/03/07 01:50:54;;;;;;;46.57;26.60;;;;;;;;;;767247;181;919294;-68
2021/03/07 01:53:20;;;;;;;41.70;25.57;;;;;;;;;;775644;180;1021037;-69
2021/03/07 01:55:45;;;;;;;35.30;24.50;;;;;;;;;;767858;181;919577;-68
2021/03/07 01:58:11;;;;;;;37.40;22.90;;;;;;;;;;773548;181;919114;-70
2021/03/07 02:00:37;;;;;;;40.27;22.87;;;;;;;;;;772965;180;919747;-68
2021/03/07 02:03:03;;;;;;;36.93;23.03;;;;;;;;;;768668;180;937934;-69
2021/03/07 02:05:29;;;;;;;33.10;21.10;;;;;;;;;;770599;181;922964;-68
2021/03/07 02:07:55;;;;;;;37.43;23.87;;;;;;;;;;775227;180;919693;-69
2021/03/07 02:10:25;;;;;;;33.27;21.93;;;;;;;;;;772526;180;919084;-69
2021/03/07 02:12:51;;;;;;;40.63;23.30;;;;;;;;;;777082;180;618626;-69
2021/03/07 02:15:17;;;;;;;33.57;22.37;;;;;;;;;;774059;179;616033;-68
2021/03/07 02:17:43;;;;;;;27.80;19.53;;;;;;;;;;770750;180;919266;-68
2021/03/07 02:20:09;;;;;;;39.57;22.63;;;;;;;;;;773399;181;918996;-69
2021/03/07 02:22:35;;;;;;;35.53;23.13;;;;;;;;;;766787;180;919381;-69
2021/03/07 02:25:01;;;;;;;35.80;22.67;;;;;;;;;;776060;180;918980;-69
2021/03/07 02:27:27;;;;;;;31.83;20.40;;;;;;;;;;770897;180;919817;-68
2021/03/07 02:29:53;;;;;;;45.10;22.50;;;;;;;;;;767058;181;919113;-68
2021/03/07 02:32:19;;;;;;;33.78;21.80;;;;;;;;;;769645;180;943749;-67
2021/03/07 02:34:45;;;;;;;37.90;23.43;;;;;;;;;;767118;181;919124;-69
2021/03/07 02:37:11;;;;;;;36.10;22.00;;;;;;;;;;774976;180;925250;-69
2021/03/07 02:39:37;;;;;;;37.33;23.57;;;;;;;;;;773433;180;920273;-69
2021/03/07 02:42:03;;;;;;;33.10;20.80;;;;;;;;;;776413;180;920426;-69
2021/03/07 02:44:29;;;;;;;35.00;22.03;;;;;;;;;;772487;180;910759;-69
2021/03/07 02:46:55;;;;;;;38.27;22.60;;;;;;;;;;770106;180;916580;-69
2021/03/07 02:49:21;;;;;;;32.57;22.30;;;;;;;;;;776912;180;916112;-68
2021/03/07 02:51:47;;;;;;;35.85;21.87;;;;;;;;;;770040;181;918691;-69
2021/03/07 02:54:13;;;;;;;42.77;23.23;;;;;;;;;;770978;181;918802;-68
2021/03/07 02:56:39;;;;;;;38.07;22.70;;;;;;;;;;777628;180;917381;-68
2021/03/07 02:59:05;;;;;;;42.80;23.00;;;;;;;;;;772191;181;918875;-68
2021/03/07 03:01:31;;;;;;;39.00;23.23;;;;;;;;;;766705;180;918188;-68
2021/03/07 03:03:56;;;;;;;32.13;22.67;;;;;;;;;;772802;180;629696;-69
2021/03/07 03:06:23;;;;;;;30.17;21.97;;;;;;;;;;775295;180;917868;-68
2021/03/07 03:08:49;;;;;;;39.20;22.73;;;;;;;;;;778501;180;640949;-68
2021/03/07 03:11:15;;;;;;;40.90;21.67;;;;;;;;;;766677;181;919189;-68
2021/03/07 03:13:41;;;;;;;36.63;21.93;;;;;;;;;;773931;180;919174;-68
2021/03/07 03:16:07;;;;;;;40.80;23.13;;;;;;;;;;766587;180;1129477;-68
2021/03/07 03:18:33;;;;;;;45.17;24.80;;;;;;;;;;769112;179;916476;-68
2021/03/07 03:20:59;;;;;;;35.30;22.90;;;;;;;;;;777674;181;915516;-69
2021/03/07 03:23:25;;;;;;;42.67;24.57;;;;;;;;;;772323;181;915573;-68
2021/03/07 03:25:51;;;;;;;34.13;22.27;;;;;;;;;;768764;181;918491;-68
2021/03/07 03:28:17;;;;;;;42.60;25.77;;;;;;;;;;775652;181;920694;-68
2021/03/07 03:30:42;;;;;;;41.53;25.37;;;;;;;;;;761035;182;918970;-68
2021/03/07 03:33:08;;;;;;;39.03;23.60;;;;;;;;;;771202;180;919441;-68
2021/03/07 03:35:34;;;;;;;32.93;21.70;;;;;;;;;;768170;181;919539;-68
2021/03/07 03:38:00;;;;;;;32.53;22.10;;;;;;;;;;778289;180;811562;-68
2021/03/07 03:40:26;;;;;;;30.63;21.37;;;;;;;;;;776646;180;636165;-68
2021/03/07 03:42:52;;;;;;;38.53;22.57;;;;;;;;;;775563;180;609156;-68
2021/03/07 03:45:18;;;;;;;34.03;22.13;;;;;;;;;;775500;178;627187;-68
2021/03/07 03:47:43;;;;;;;30.57;21.47;;;;;;;;;;778493;180;664232;-68
2021/03/07 03:50:10;;;;;;;30.67;20.57;;;;;;;;;;777939;180;632142;-68
2021/03/07 03:52:36;;;;;;;37.35;21.60;;;;;;;;;;779611;180;908359;-68
2021/03/07 03:55:06;;;;;;;38.30;22.30;;;;;;;;;;770958;181;919410;-68
2021/03/07 03:57:32;;;;;;;40.27;21.40;;;;;;;;;;772341;181;1019246;-68
2021/03/07 03:59:57;;;;;;;35.17;22.80;;;;;;;;;;771705;181;919335;-68
2021/03/07 04:02:24;;;;;;;39.87;22.73;;;;;;;;;;774181;180;918656;-68
2021/03/07 04:04:50;;;;;;;35.77;23.10;;;;;;;;;;769617;180;918825;-67
2021/03/07 04:07:16;;;;;;;37.93;23.10;;;;;;;;;;774097;180;919612;-68
2021/03/07 04:09:42;;;;;;;32.87;21.80;;;;;;;;;;774220;180;919408;-68
2021/03/07 04:12:08;;;;;;;31.70;21.05;;;;;;;;;;769321;180;919420;-67
2021/03/07 04:14:33;;;;;;;27.77;19.40;;;;;;;;;;769748;181;925851;-68
2021/03/07 04:17:02;;;;;;;29.70;18.33;;;;;;;;;;778492;180;919536;-68
2021/03/07 04:19:25;;;;;;;31.13;18.73;;;;;;;;;;771939;180;940715;-68
2021/03/07 04:21:51;;;;;;;30.80;18.00;;;;;;;;;;770248;178;1021091;-68
2021/03/07 04:24:17;;;;;;;29.60;20.27;;;;;;;;;;768984;180;933964;-68
2021/03/07 04:26:43;;;;;;;31.70;18.50;;;;;;;;;;766694;182;919720;-68
2021/03/07 04:29:08;;;;;;;32.30;19.07;;;;;;;;;;769367;180;922395;-68
2021/03/07 04:31:34;;;;;;;31.13;18.40;;;;;;;;;;769919;180;919138;-69
2021/03/07 04:34:00;;;;;;;24.87;17.60;;;;;;;;;;779734;180;635160;-68
2021/03/07 04:36:26;;;;;;;25.15;16.75;;;;;;;;;;768627;180;920293;-68
2021/03/07 04:38:52;;;;;;;35.17;18.87;;;;;;;;;;771775;180;920991;-68
2021/03/07 04:41:18;;;;;;;33.40;18.50;;;;;;;;;;774398;180;918088;-68
2021/03/07 04:43:47;;;;;;;27.10;17.43;;;;;;;;;;774503;178;913649;-68
2021/03/07 04:46:13;;;;;;;26.93;17.23;;;;;;;;;;775762;181;625747;-68
2021/03/07 04:48:39;;;;;;;29.90;18.20;;;;;;;;;;775786;178;623562;-68
2021/03/07 04:51:05;;;;;;;21.10;16.70;;;;;;;;;;777496;180;912606;-68
2021/03/07 04:53:31;;;;;;;27.00;17.80;;;;;;;;;;769273;180;912644;-68
2021/03/07 04:55:57;;;;;;;26.27;17.83;;;;;;;;;;768565;180;919284;-67
2021/03/07 04:58:22;;;;;;;27.00;16.93;;;;;;;;;;781161;180;855470;-68
2021/03/07 05:00:48;;;;;;;32.23;15.17;;;;;;;;;;774173;180;918969;-68
2021/03/07 05:03:14;;;;;;;19.70;14.77;;;;;;;;;;778306;180;919197;-67
2021/03/07 05:05:40;;;;;;;27.50;16.43;;;;;;;;;;776566;180;969316;-67
2021/03/07 05:08:07;;;;;;;25.87;15.77;;;;;;;;;;771009;180;919494;-67
2021/03/07 05:10:32;;;;;;;22.60;13.93;;;;;;;;;;773524;181;918302;-67
2021/03/07 05:12:57;;;;;;;24.60;16.50;;;;;;;;;;776132;180;919209;-67
2021/03/07 05:15:23;;;;;;;24.43;17.23;;;;;;;;;;767184;181;919415;-67
2021/03/07 05:17:49;;;;;;;21.03;14.30;;;;;;;;;;768192;180;918221;-67
2021/03/07 05:20:15;;;;;;;22.27;16.02;;;;;;;;;;772506;180;919195;-68
2021/03/07 05:22:41;;;;;;;29.33;15.70;;;;;;;;;;770921;180;917781;-67
2021/03/07 05:25:07;;;;;;;22.20;14.80;;;;;;;;;;771039;180;919367;-67
2021/03/07 05:27:33;;;;;;;19.08;13.98;;;;;;;;;;770873;180;919063;-67
2021/03/07 05:29:59;;;;;;;25.20;15.07;;;;;;;;;;774921;181;919271;-67
2021/03/07 05:32:25;;;;;;;24.00;14.00;;;;;;;;;;771056;180;918667;-67
2021/03/07 05:34:51;;;;;;;24.63;16.45;;;;;;;;;;769125;180;919196;-67
2021/03/07 05:37:17;;;;;;;21.80;14.27;;;;;;;;;;772519;180;915358;-67
2021/03/07 05:39:43;;;;;;;22.63;15.47;;;;;;;;;;771934;180;919734;-68
2021/03/07 05:42:08;;;;;;;23.23;14.97;;;;;;;;;;770090;180;919159;-66
2021/03/07 05:44:35;;;;;;;22.35;14.15;;;;;;;;;;775864;180;906678;-66
2021/03/07 05:47:01;;;;;;;23.70;14.57;;;;;;;;;;761716;182;911640;-67
2021/03/07 05:49:27;;;;;;;24.40;14.50;;;;;;;;;;766127;180;915829;-67
2021/03/07 05:51:52;;;;;;;20.00;13.00;;;;;;;;;;770234;180;913594;-67
2021/03/07 05:54:18;;;;;;;19.53;13.30;;;;;;;;;;776312;180;915783;-68
2021/03/07 05:56:49;;;;;;;25.03;14.37;;;;;;;;;;768575;180;1006863;-67
2021/03/07 05:59:15;;;;;;;35.83;16.37;;;;;;;;;;767844;180;1017575;-67
2021/03/07 06:01:41;;;;;;;26.23;15.70;;;;;;;;;;776542;181;916381;-67
2021/03/07 06:04:07;;;;;;;24.03;15.90;;;;;;;;;;767049;180;916564;-67
2021/03/07 06:06:32;;;;;;;27.37;15.70;;;;;;;;;;773667;180;916044;-66
2021/03/07 06:09:04;;;;;;;24.33;16.57;;;;;;;;;;774436;180;918521;-65
2021/03/07 06:11:30;;;;;;;21.77;16.10;;;;;;;;;;775850;180;919247;-67
2021/03/07 06:13:56;;;;;;;25.60;16.40;;;;;;;;;;773536;180;1021251;-67
2021/03/07 06:16:22;;;;;;;23.73;16.77;;;;;;;;;;770355;180;919280;-66
2021/03/07 06:18:48;;;;;;;25.80;17.23;;;;;;;;;;776030;180;912894;-69
2021/03/07 06:21:20;;;;;;;26.90;19.67;;;;;;;;;;768531;181;912042;-67
2021/03/07 06:23:46;;;;;;;30.17;19.10;;;;;;;;;;772499;177;914034;-67
2021/03/07 06:26:12;;;;;;;30.83;20.47;;;;;;;;;;774806;180;910387;-66
2021/03/07 06:28:38;;;;;;;32.40;21.97;;;;;;;;;;779877;180;921217;-67
2021/03/07 06:31:04;;;;;;;41.87;23.03;;;;;;;;;;770363;180;911849;-66
2021/03/07 06:33:30;;;;;;;38.10;22.40;;;;;;;;;;767728;181;912175;-68
2021/03/07 06:36:02;;;;;;;41.27;26.00;;;;;;;;;;776233;180;915136;-68
2021/03/07 06:38:28;;;;;;;42.30;24.80;;;;;;;;;;768387;180;910220;-69
2021/03/07 06:40:54;;;;;;;41.83;27.00;;;;;;;;;;769644;180;942981;-70
2021/03/07 06:43:20;;;;;;;41.43;24.20;;;;;;;;;;767155;180;934965;-70
2021/03/07 06:45:46;;;;;;;38.47;20.70;;;;;;;;;;778340;180;954057;-71
2021/03/07 06:48:12;;;;;;;36.47;21.57;;;;;;;;;;766921;181;920900;-71
2021/03/07 06:50:44;;;;;;;39.33;18.70;;;;;;;;;;769384;180;1015434;-71
2021/03/07 06:53:11;;;;;;;32.43;19.20;;;;;;;;;;773396;180;913550;-71
2021/03/07 06:55:40;;;;;;;32.80;20.77;;;;;;;;;;769052;180;1231853;-70
2021/03/07 06:58:12;;;;;;;38.40;18.67;;;;;;;;;;771307;180;915845;-69
2021/03/07 07:00:38;;;;;;;30.48;16.83;;;;;;;;;;771146;180;928062;-69
2021/03/07 07:03:04;;;;;;;20.37;15.70;;;;;;;;;;776272;181;931346;-68
2021/03/07 07:05:32;;;;;;;24.17;15.53;;;;;;;;;;767257;180;920068;-67
2021/03/07 07:07:58;;;;;;;24.40;14.67;;;;;;;;;;768061;180;919348;-66
2021/03/07 07:10:24;;;;;;;36.23;14.47;;;;;;;;;;764297;180;1937458;-66
2021/03/07 07:12:50;;;;;;;24.60;13.67;;;;;;;;;;775726;180;916285;-66
2021/03/07 07:15:17;;;;;;;24.73;14.87;;;;;;;;;;763744;180;1522582;-67
2021/03/07 07:17:42;;;;;;;25.10;16.37;;;;;;;;;;768940;180;919714;-66
2021/03/07 07:20:08;;;;;;;22.83;14.45;;;;;;;;;;776747;179;918786;-67
2021/03/07 07:22:34;;;;;;;22.30;14.97;;;;;;;;;;773775;180;918095;-67
2021/03/07 07:25:00;;;;;;;29.67;14.50;;;;;;;;;;771444;180;919461;-67
2021/03/07 07:27:25;;;;;;;19.00;14.27;;;;;;;;;;777409;180;876264;-67
2021/03/07 07:29:51;;;;;;;24.10;13.43;;;;;;;;;;766440;180;1204774;-68
2021/03/07 07:32:17;;;;;;;21.97;12.33;;;;;;;;;;772433;180;919244;-67
2021/03/07 07:34:43;;;;;;;20.40;13.10;;;;;;;;;;776157;180;618660;-67
2021/03/07 07:37:09;;;;;;;20.03;12.63;;;;;;;;;;772415;180;919661;-67
2021/03/07 07:39:35;;;;;;;19.50;11.80;;;;;;;;;;771602;181;919856;-67
2021/03/07 07:42:16;;;;;;;18.67;12.43;;;;;;;;;;769140;180;919668;-67
2021/03/07 07:44:42;;;;;;;15.10;10.57;;;;;;;;;;768874;180;919583;-68
2021/03/07 07:47:08;;;;;;;15.70;10.27;;;;;;;;;;774310;180;919080;-68
2021/03/07 07:49:34;;;;;;;13.10;8.20;;;;;;;;;;770805;181;919185;-69
2021/03/07 07:52:00;;;;;;;16.20;8.67;;;;;;;;;;768673;180;918730;-69
2021/03/07 07:54:31;;;;;;;16.60;8.97;;;;;;;;;;779236;180;794464;-69
2021/03/07 07:56:57;;;;;;;14.60;9.57;;;;;;;;;;769585;179;919255;-69
2021/03/07 07:59:24;;;;;;;11.43;6.87;;;;;;;;;;772185;180;919160;-68
2021/03/07 08:01:50;;;;;;;10.87;7.20;;;;;;;;;;765792;180;1021663;-69
2021/03/07 08:04:21;;;;;;;13.60;7.67;;;;;;;;;;766858;183;614378;-68
2021/03/07 08:06:47;;;;;;;10.30;7.20;;;;;;;;;;771348;180;626469;-67
2021/03/07 08:09:30;;;;;;;15.73;7.57;;;;;;;;;;771555;180;910390;-68
2021/03/07 08:11:56;;;;;;;11.20;5.73;;;;;;;;;;769675;180;623617;-68
2021/03/07 08:14:28;;;;;;;10.80;7.30;;;;;;;;;;779927;181;614506;-68
2021/03/07 08:16:54;;;;;;;14.70;7.80;;;;;;;;;;766626;180;2047558;-68
2021/03/07 08:19:20;;;;;;;7.23;6.30;;;;;;;;;;772639;180;919593;-67
2021/03/07 08:21:51;;;;;;;9.93;6.37;;;;;;;;;;761981;177;928555;-68
2021/03/07 08:24:17;;;;;;;10.33;6.93;;;;;;;;;;777463;180;919527;-68
2021/03/07 08:26:51;;;;;;;12.17;7.60;;;;;;;;;;768225;180;918222;-68
2021/03/07 08:29:23;;;;;;;8.97;5.70;;;;;;;;;;770657;181;917801;-68
2021/03/07 08:31:49;;;;;;;12.43;7.37;;;;;;;;;;770043;178;923878;-69
2021/03/07 08:34:17;;;;;;;11.20;7.40;;;;;;;;;;778767;180;919351;-66
2021/03/07 08:36:52;;;;;;;8.80;6.33;;;;;;;;;;769855;180;919862;-65
2021/03/07 08:39:18;;;;;;;10.68;6.25;;;;;;;;;;768486;179;915712;-66
2021/03/07 08:42:00;;;;;;;11.23;5.13;;;;;;;;;;768562;179;919413;-65
2021/03/07 08:44:25;;;;;;;9.10;5.53;;;;;;;;;;765185;180;1018601;-65
2021/03/07 08:46:51;;;;;;;6.77;5.10;;;;;;;;;;777118;181;915279;-66
2021/03/07 08:49:17;;;;;;;11.90;4.73;;;;;;;;;;768831;180;922245;-65
2021/03/07 08:51:44;;;;;;;9.53;4.67;;;;;;;;;;772334;181;916624;-65
2021/03/07 08:54:09;;;;;;;6.93;5.30;;;;;;;;;;770115;181;1016561;-63
2021/03/07 08:56:36;;;;;;;6.83;4.60;;;;;;;;;;764661;183;920091;-64
2021/03/07 08:59:01;;;;;;;9.65;5.10;;;;;;;;;;759931;180;2194787;-64
2021/03/07 09:01:27;;;;;;;11.10;6.20;;;;;;;;;;774341;180;623595;-64
2021/03/07 09:03:54;;;;;;;12.20;5.63;;;;;;;;;;770297;180;613321;-64
2021/03/07 09:06:20;;;;;;;7.97;5.93;;;;;;;;;;773182;180;633883;-64
2021/03/07 09:08:46;;;;;;;8.50;5.20;;;;;;;;;;775019;180;627780;-63
2021/03/07 09:11:12;;;;;;;7.93;5.10;;;;;;;;;;778988;180;630889;-64
2021/03/07 09:13:43;;;;;;;7.00;4.47;;;;;;;;;;771012;180;620453;-64
2021/03/07 09:16:09;;;;;;;6.03;4.87;;;;;;;;;;770792;180;636918;-64
2021/03/07 09:18:38;;;;;;;7.33;5.20;;;;;;;;;;770717;181;623272;-67
2021/03/07 09:21:02;;;;;;;6.50;4.00;;;;;;;;;;778676;180;625115;-67
2021/03/07 09:23:32;;;;;;;7.57;5.07;;;;;;;;;;772756;180;624950;-64
2021/03/07 09:25:58;;;;;;;8.40;4.97;;;;;;;;;;770234;181;867524;-64
2021/03/07 09:28:29;;;;;;;11.30;5.13;;;;;;;;;;778417;180;630005;-64
2021/03/07 09:30:56;;;;;;;5.27;4.20;;;;;;;;;;776064;180;613428;-64
2021/03/07 09:33:22;;;;;;;8.37;5.37;;;;;;;;;;773660;180;628541;-64
2021/03/07 09:35:48;;;;;;;8.90;5.07;;;;;;;;;;769940;180;720376;-63
2021/03/07 09:38:15;;;;;;;9.37;4.83;;;;;;;;;;775117;180;621229;-63
2021/03/07 09:40:40;;;;;;;5.90;3.97;;;;;;;;;;774952;180;636653;-63
2021/03/07 09:43:07;;;;;;;7.37;4.70;;;;;;;;;;775001;179;644743;-63
2021/03/07 09:45:33;;;;;;;8.73;4.50;;;;;;;;;;773358;180;1670230;-64
2021/03/07 09:47:59;;;;;;;9.80;4.80;;;;;;;;;;775713;178;628993;-63
2021/03/07 09:50:24;;;;;;;8.03;5.33;;;;;;;;;;770571;180;637006;-64
2021/03/07 09:52:50;;;;;;;8.57;4.40;;;;;;;;;;778253;178;627357;-63
2021/03/07 09:55:25;;;;;;;7.17;5.23;;;;;;;;;;778501;180;615844;-63
2021/03/07 09:57:59;;;;;;;7.23;3.90;;;;;;;;;;774184;180;918554;-64
2021/03/07 10:00:23;;;;;;;4.97;3.83;;;;;;;;;;771366;180;918717;-64
2021/03/07 10:02:49;;;;;;;8.02;5.15;;;;;;;;;;770467;180;1435898;-63
2021/03/07 10:05:15;;;;;;;5.17;4.07;;;;;;;;;;779572;180;631463;-63
2021/03/07 10:07:41;;;;;;;6.97;5.07;;;;;;;;;;768212;180;1633428;-63
2021/03/07 10:10:07;;;;;;;8.20;4.87;;;;;;;;;;775327;181;630821;-63
2021/03/07 10:12:55;;;;;;;6.63;4.60;;;;;;;;;;773742;180;625150;-63
2021/03/07 10:15:26;;;;;;;6.17;4.20;;;;;;;;;;772428;180;623743;-63
2021/03/07 10:17:50;;;;;;;6.03;3.67;;;;;;;;;;780197;178;624726;-62
2021/03/07 10:20:17;;;;;;;7.47;4.60;;;;;;;;;;775395;180;629528;-63
2021/03/07 10:22:42;;;;;;;7.27;4.70;;;;;;;;;;771952;181;624447;-63
2021/03/07 10:25:08;;;;;;;7.90;3.90;;;;;;;;;;781898;180;647514;-63
2021/03/07 10:27:34;;;;;;;5.50;4.20;;;;;;;;;;759380;180;2929232;-63
2021/03/07 10:30:00;;;;;;;8.27;4.87;;;;;;;;;;775563;180;630494;-63
2021/03/07 10:32:26;;;;;;;6.43;3.90;;;;;;;;;;777720;180;627599;-63
2021/03/07 10:34:52;;;;;;;6.90;4.80;;;;;;;;;;775086;180;620497;-63
2021/03/07 10:37:23;;;;;;;5.47;4.00;;;;;;;;;;772851;180;850432;-62
2021/03/07 10:39:50;;;;;;;7.53;4.53;;;;;;;;;;765194;180;2208653;-63
2021/03/07 10:42:16;;;;;;;8.30;4.70;;;;;;;;;;775259;180;635739;-62
2021/03/07 10:44:42;;;;;;;4.80;3.50;;;;;;;;;;774853;180;616754;-64
2021/03/07 10:47:20;;;;;;;7.30;3.73;;;;;;;;;;772501;180;636611;-65
2021/03/07 10:49:48;;;;;;;5.50;4.10;;;;;;;;;;775741;180;632733;-63
2021/03/07 10:52:14;;;;;;;6.90;4.13;;;;;;;;;;778316;180;621199;-65
2021/03/07 10:54:40;;;;;;;8.20;5.00;;;;;;;;;;774067;179;673336;-63
2021/03/07 10:57:06;;;;;;;7.30;4.40;;;;;;;;;;775932;180;666691;-63
2021/03/07 10:59:32;;;;;;;8.33;4.63;;;;;;;;;;772876;180;626819;-62
2021/03/07 11:01:58;;;;;;;6.80;4.60;;;;;;;;;;775766;181;622149;-63
2021/03/07 11:04:24;;;;;;;6.10;3.93;;;;;;;;;;774542;180;639977;-64
2021/03/07 11:06:50;;;;;;;6.10;3.00;;;;;;;;;;775924;180;638663;-63
2021/03/07 11:09:15;;;;;;;5.23;2.87;;;;;;;;;;774777;180;628055;-62
2021/03/07 11:11:43;;;;;;;5.23;3.67;;;;;;;;;;775397;180;654581;-63
2021/03/07 11:14:07;;;;;;;6.20;4.75;;;;;;;;;;770809;179;679441;-63
2021/03/07 11:16:33;;;;;;;7.73;3.93;;;;;;;;;;780718;180;631120;-63
2021/03/07 11:18:59;;;;;;;6.67;4.47;;;;;;;;;;772422;180;630855;-63
2021/03/07 11:21:25;;;;;;;5.80;3.87;;;;;;;;;;771632;181;627091;-63
2021/03/07 11:23:51;;;;;;;6.03;3.80;;;;;;;;;;776207;180;624351;-63
2021/03/07 11:26:17;;;;;;;5.05;4.20;;;;;;;;;;777762;180;631997;-63
2021/03/07 11:28:43;;;;;;;5.60;3.97;;;;;;;;;;773848;180;626808;-63
2021/03/07 11:31:09;;;;;;;7.07;4.03;;;;;;;;;;773491;180;633353;-63
2021/03/07 11:33:35;;;;;;;8.00;4.60;;;;;;;;;;778346;179;630109;-63
2021/03/07 11:36:01;;;;;;;8.03;5.37;;;;;;;;;;770609;179;1044816;-63
2021/03/07 11:38:26;;;;;;;7.20;4.47;;;;;;;;;;774834;180;625621;-62
2021/03/07 11:40:52;;;;;;;8.17;4.20;;;;;;;;;;777652;180;626396;-63
2021/03/07 11:43:18;;;;;;;12.00;5.90;;;;;;;;;;778672;180;623753;-62
2021/03/07 11:45:44;;;;;;;7.30;4.97;;;;;;;;;;769126;181;636005;-64
2021/03/07 11:48:10;;;;;;;7.80;5.50;;;;;;;;;;776636;180;618400;-61
2021/03/07 11:50:36;;;;;;;9.93;5.70;;;;;;;;;;772278;180;618961;-60
2021/03/07 11:53:02;;;;;;;7.37;5.20;;;;;;;;;;773953;179;704337;-59
2021/03/07 11:55:28;;;;;;;9.52;5.07;;;;;;;;;;772925;180;624700;-61
2021/03/07 11:57:53;;;;;;;9.20;5.07;;;;;;;;;;779707;180;629144;-63
2021/03/07 12:00:20;;;;;;;9.25;4.62;;;;;;;;;;773338;180;763569;-62
2021/03/07 12:02:45;;;;;;;6.40;4.17;;;;;;;;;;775586;181;629962;-62
2021/03/07 12:05:12;;;;;;;7.27;4.33;;;;;;;;;;779009;180;626612;-64
2021/03/07 12:07:38;;;;;;;6.83;4.03;;;;;;;;;;774450;179;622113;-62
2021/03/07 12:10:04;;;;;;;9.23;5.23;;;;;;;;;;776056;180;630780;-63
2021/03/07 12:12:30;;;;;;;7.63;4.80;;;;;;;;;;779979;180;619761;-62
2021/03/07 12:14:56;;;;;;;7.80;4.57;;;;;;;;;;778562;180;624060;-62
2021/03/07 12:17:22;;;;;;;8.77;6.70;;;;;;;;;;775619;180;632370;-62
2021/03/07 12:19:48;;;;;;;5.07;3.90;;;;;;;;;;780782;181;619295;-62
2021/03/07 12:22:14;;;;;;;8.10;4.97;;;;;;;;;;776712;178;652829;-63
2021/03/07 12:24:40;;;;;;;9.30;5.72;;;;;;;;;;778860;180;622404;-62
2021/03/07 12:27:06;;;;;;;10.47;5.73;;;;;;;;;;771962;180;638945;-62
2021/03/07 12:29:32;;;;;;;6.97;4.83;;;;;;;;;;782194;180;623818;-63
2021/03/07 12:31:58;;;;;;;8.30;5.67;;;;;;;;;;773861;180;636191;-62
2021/03/07 12:34:23;;;;;;;9.80;5.50;;;;;;;;;;776786;180;620467;-63
2021/03/07 12:36:49;;;;;;;12.80;6.60;;;;;;;;;;777717;180;622927;-63
2021/03/07 12:39:15;;;;;;;8.27;5.30;;;;;;;;;;775271;181;632522;-63
2021/03/07 12:41:41;;;;;;;7.53;5.10;;;;;;;;;;773385;180;669813;-63
2021/03/07 12:44:07;;;;;;;8.77;5.00;;;;;;;;;;780834;180;631099;-62
2021/03/07 12:46:33;;;;;;;7.17;4.40;;;;;;;;;;774214;180;633238;-62
2021/03/07 12:48:59;;;;;;;8.90;5.10;;;;;;;;;;771519;180;631650;-65
2021/03/07 12:51:25;;;;;;;6.68;4.93;;;;;;;;;;773902;181;645581;-62
2021/03/07 12:53:50;;;;;;;8.70;5.50;;;;;;;;;;773603;181;617020;-62
2021/03/07 12:56:16;;;;;;;8.67;5.10;;;;;;;;;;772238;179;626185;-65
2021/03/07 12:58:42;;;;;;;6.67;4.93;;;;;;;;;;772593;180;630410;-63
2021/03/07 13:01:08;;;;;;;6.30;4.13;;;;;;;;;;781345;180;616249;-62
2021/03/07 13:03:34;;;;;;;9.80;5.23;;;;;;;;;;768355;180;1757748;-63
2021/03/07 13:06:00;;;;;;;8.13;4.70;;;;;;;;;;776969;180;631834;-63
2021/03/07 13:08:26;;;;;;;8.20;4.80;;;;;;;;;;775154;180;637885;-63
2021/03/07 13:10:51;;;;;;;5.83;3.67;;;;;;;;;;774639;181;919660;-63
2021/03/07 13:13:18;;;;;;;15.50;4.23;;;;;;;;;;771490;180;841848;-63
2021/03/07 13:15:44;;;;;;;9.15;5.90;;;;;;;;;;777352;180;627215;-63
2021/03/07 13:18:10;;;;;;;6.70;4.93;;;;;;;;;;779924;177;633830;-63
2021/03/07 13:20:36;;;;;;;8.57;4.87;;;;;;;;;;775919;180;625070;-64
2021/03/07 13:23:03;;;;;;;7.43;4.40;;;;;;;;;;774468;180;642750;-65
2021/03/07 13:25:30;;;;;;;8.93;4.83;;;;;;;;;;777260;180;630550;-63
2021/03/07 13:27:55;;;;;;;11.40;5.17;;;;;;;;;;774207;180;626135;-63
2021/03/07 13:30:21;;;;;;;4.77;3.60;;;;;;;;;;772450;180;630782;-63
2021/03/07 13:32:47;;;;;;;7.67;5.13;;;;;;;;;;780765;181;622141;-63
2021/03/07 13:35:13;;;;;;;9.87;5.20;;;;;;;;;;771524;180;636579;-63
2021/03/07 13:37:39;;;;;;;8.80;5.60;;;;;;;;;;772245;181;631587;-64
2021/03/07 13:40:06;;;;;;;8.55;4.85;;;;;;;;;;770955;180;693597;-63
2021/03/07 13:42:32;;;;;;;9.37;5.77;;;;;;;;;;763523;182;616209;-63
2021/03/07 13:44:58;;;;;;;10.40;5.00;;;;;;;;;;766415;180;653286;-64
2021/03/07 13:47:24;;;;;;;8.43;5.20;;;;;;;;;;777302;180;630485;-63
2021/03/07 13:49:50;;;;;;;6.90;4.50;;;;;;;;;;777164;180;865318;-63
2021/03/07 13:52:16;;;;;;;12.00;6.10;;;;;;;;;;774466;180;667130;-62
2021/03/07 13:54:41;;;;;;;8.00;5.20;;;;;;;;;;773042;180;626603;-63
2021/03/07 13:57:07;;;;;;;10.43;5.30;;;;;;;;;;779483;180;616982;-62
2021/03/07 13:59:34;;;;;;;8.23;5.60;;;;;;;;;;769943;180;618286;-64
2021/03/07 14:02:00;;;;;;;9.07;6.27;;;;;;;;;;773301;180;621533;-63
2021/03/07 14:04:26;;;;;;;7.10;5.20;;;;;;;;;;777513;180;617163;-62
2021/03/07 14:06:52;;;;;;;7.80;5.70;;;;;;;;;;771550;179;620835;-63
2021/03/07 14:09:18;;;;;;;9.23;5.50;;;;;;;;;;772274;180;919473;-63